Time;durP1;ratioP1;P1;durP2;ratioP2;P2;SDS_P1;SDS_P2;PMS_P1;PMS_P2;Temp;Humidity;BMP_temperature;BMP_pressure;BME280_temperature;BME280_humidity;BME280_pressure;Samples;Min_cycle;Max_cycle;Signal;HPM_P1;HPM_P2
2021/08/08 00:00:39;;;;;;;7.75;3.42;;;;;;;13.81;100.00;99873.06;5048789;28;20039;-70
2021/08/08 00:03:05;;;;;;;7.93;3.70;;;;;;;13.80;100.00;99875.97;5047547;28;20118;-70
2021/08/08 00:05:30;;;;;;;11.07;4.40;;;;;;;13.76;100.00;99864.78;5047519;28;20036;-70
2021/08/08 00:07:55;;;;;;;10.97;3.80;;;;;;;13.76;100.00;99870.16;5048285;28;20040;-70
2021/08/08 00:10:21;;;;;;;7.70;4.20;;;;;;;13.71;100.00;99862.72;5047485;28;20182;-70
2021/08/08 00:12:47;;;;;;;8.07;3.63;;;;;;;13.73;100.00;99860.66;5048426;28;20120;-70
2021/08/08 00:15:12;;;;;;;7.00;3.50;;;;;;;13.73;100.00;99844.56;5047167;28;20473;-71
2021/08/08 00:17:38;;;;;;;4.57;3.25;;;;;;;13.78;100.00;99852.00;5048259;28;20025;-70
2021/08/08 00:20:05;;;;;;;11.00;4.28;;;;;;;13.86;100.00;99848.28;5047100;28;20068;-70
2021/08/08 00:22:31;;;;;;;8.93;4.28;;;;;;;13.91;100.00;99845.84;5048142;28;20071;-70
2021/08/08 00:24:57;;;;;;;6.68;4.45;;;;;;;13.89;100.00;99851.41;5046977;28;20021;-70
2021/08/08 00:27:22;;;;;;;10.80;4.50;;;;;;;13.92;100.00;99856.34;5047542;28;20045;-70
2021/08/08 00:29:47;;;;;;;7.30;4.43;;;;;;;13.93;100.00;99866.06;5048118;28;20040;-70
2021/08/08 00:32:13;;;;;;;7.57;4.27;;;;;;;13.92;100.00;99859.03;5047330;28;20033;-70
2021/08/08 00:34:41;;;;;;;7.68;4.05;;;;;;;13.96;100.00;99853.28;5046943;28;20025;-70
2021/08/08 00:37:07;;;;;;;13.18;6.65;;;;;;;14.01;100.00;99850.78;5030494;28;20327;-70
2021/08/08 00:39:32;;;;;;;12.43;5.93;;;;;;;13.95;100.00;99847.06;5047153;28;20047;-70
2021/08/08 00:41:58;;;;;;;10.63;4.95;;;;;;;13.94;100.00;99862.34;5047019;28;20801;-70
2021/08/08 00:44:24;;;;;;;7.90;5.25;;;;;;;13.94;100.00;99859.66;5030247;28;20032;-70
2021/08/08 00:46:50;;;;;;;11.40;5.00;;;;;;;13.90;100.00;99861.09;5047920;28;20036;-70
2021/08/08 00:49:16;;;;;;;10.05;5.32;;;;;;;13.89;100.00;99859.44;5030609;28;20401;-70
2021/08/08 00:51:41;;;;;;;11.53;5.17;;;;;;;14.02;100.00;99863.97;5047022;28;20047;-70
2021/08/08 00:54:09;;;;;;;19.10;5.18;;;;;;;14.05;100.00;99877.00;5046940;28;20033;-70
2021/08/08 00:56:38;;;;;;;8.90;5.25;;;;;;;14.16;100.00;99907.75;5030220;28;20037;-70
2021/08/08 00:59:05;;;;;;;11.07;5.22;;;;;;;14.13;100.00;99924.28;5047054;28;20072;-70
2021/08/08 01:01:41;;;;;;;8.98;5.05;;;;;;;14.22;100.00;99931.09;5046827;28;20020;-69
2021/08/08 01:04:14;;;;;;;9.73;4.85;;;;;;;14.29;100.00;99918.50;5046895;28;20033;-70
2021/08/08 01:06:46;;;;;;;9.57;4.63;;;;;;;14.33;100.00;99911.69;5046604;28;20650;-69
2021/08/08 01:09:14;;;;;;;9.52;5.03;;;;;;;14.40;100.00;99914.38;5030773;28;20033;-69
2021/08/08 01:11:41;;;;;;;7.75;6.05;;;;;;;14.43;100.00;99918.50;5030071;28;20037;-70
2021/08/08 01:14:08;;;;;;;7.28;5.25;;;;;;;14.47;100.00;99928.63;5046707;28;20412;-70
2021/08/08 01:16:40;;;;;;;7.70;4.90;;;;;;;14.54;100.00;99931.34;5046518;28;20024;-69
2021/08/08 01:19:09;;;;;;;5.43;4.20;;;;;;;14.57;100.00;99921.00;5046930;28;20035;-69
2021/08/08 01:21:34;;;;;;;7.53;5.53;;;;;;;14.52;100.00;99923.44;5046398;28;20029;-69
2021/08/08 01:24:05;;;;;;;7.97;5.25;;;;;;;14.52;100.00;99919.94;5046719;28;20193;-70
2021/08/08 01:26:33;;;;;;;11.68;5.40;;;;;;;14.51;100.00;99924.47;5046372;28;20370;-70
2021/08/08 01:29:01;;;;;;;10.60;5.47;;;;;;;14.49;100.00;99913.13;5046211;28;20095;-70
2021/08/08 01:31:27;;;;;;;15.07;6.05;;;;;;;14.65;100.00;99906.50;5047828;28;20037;-71
2021/08/08 01:33:52;;;;;;;10.18;5.53;;;;;;;14.68;100.00;99902.56;5050502;28;20043;-71
2021/08/08 01:36:19;;;;;;;8.97;6.43;;;;;;;14.69;100.00;99902.38;5033420;28;20052;-71
2021/08/08 01:38:57;;;;;;;15.60;6.35;;;;;;;14.64;100.00;99890.63;5050430;28;20120;-71
2021/08/08 01:41:27;;;;;;;9.90;5.85;;;;;;;14.64;100.00;99894.13;5049129;28;20366;-71
2021/08/08 01:43:58;;;;;;;13.55;8.45;;;;;;;14.60;100.00;99898.25;5050949;28;20457;-71
2021/08/08 01:46:26;;;;;;;;;;;;;;;14.61;100.00;99894.56;5050266;28;20037;-71
2021/08/08 01:49:11;;;;;;;8.32;6.05;;;;;;;14.54;100.00;99888.38;5050413;28;19912;-71
2021/08/08 01:51:37;;;;;;;;;;;;;;;14.54;100.00;99896.44;5050464;28;20037;-71
2021/08/08 01:54:03;;;;;;;;;;;;;;;14.55;100.00;99895.38;5067003;28;19913;-71
2021/08/08 01:56:29;;;;;;;15.95;6.68;;;;;;;14.52;100.00;99891.22;5049809;28;19974;-71
2021/08/08 01:58:55;;;;;;;8.45;6.40;;;;;;;14.49;100.00;99883.59;5033452;28;20441;-72
2021/08/08 02:01:29;;;;;;;13.07;7.13;;;;;;;14.49;100.00;99901.53;5033737;28;20152;-71
2021/08/08 02:03:59;;;;;;;11.55;7.30;;;;;;;14.36;100.00;99900.53;5049618;28;20037;-71
2021/08/08 02:06:25;;;;;;;7.27;5.97;;;;;;;14.27;100.00;99896.41;5049494;28;20466;-72
2021/08/08 02:08:54;;;;;;;12.82;7.40;;;;;;;14.26;100.00;99886.72;5049936;28;20025;-71
2021/08/08 02:11:20;;;;;;;9.23;6.30;;;;;;;14.17;100.00;99893.31;5049854;28;20480;-71
2021/08/08 02:13:58;;;;;;;10.52;6.82;;;;;;;14.07;100.00;99891.06;5049609;28;20667;-71
2021/08/08 02:16:25;;;;;;;11.70;6.85;;;;;;;14.01;100.00;99883.00;5033038;28;20040;-71
2021/08/08 02:18:51;;;;;;;14.57;7.18;;;;;;;13.98;100.00;99883.38;5049458;28;20029;-71
2021/08/08 02:21:24;;;;;;;11.57;7.32;;;;;;;13.97;100.00;99892.47;5049743;28;20044;-71
2021/08/08 02:23:53;;;;;;;11.65;6.88;;;;;;;13.94;100.00;99893.72;5033116;28;20183;-71
2021/08/08 02:26:21;;;;;;;10.93;8.10;;;;;;;13.93;100.00;99887.53;5049116;28;20454;-71
2021/08/08 02:28:51;;;;;;;12.77;8.45;;;;;;;13.92;100.00;99891.22;5033005;28;20179;-71
2021/08/08 02:31:18;;;;;;;13.95;8.07;;;;;;;13.91;100.00;99897.63;5049538;28;20112;-71
2021/08/08 02:33:45;;;;;;;13.63;8.27;;;;;;;13.86;100.00;99892.06;5032514;28;20040;-71
2021/08/08 02:36:11;;;;;;;12.98;9.05;;;;;;;13.86;100.00;99892.06;5049021;28;20021;-73
2021/08/08 02:38:40;;;;;;;17.02;8.85;;;;;;;13.79;100.00;99887.69;5033117;28;20025;-73
2021/08/08 02:41:08;;;;;;;14.97;8.23;;;;;;;13.75;100.00;99891.84;5049281;28;20135;-73
2021/08/08 02:43:34;;;;;;;14.25;8.60;;;;;;;13.73;100.00;99886.66;5048845;28;20127;-74
2021/08/08 02:45:59;;;;;;;15.43;8.38;;;;;;;13.71;100.00;99891.41;5048597;28;20124;-74
2021/08/08 02:48:24;;;;;;;12.17;8.47;;;;;;;13.66;100.00;99896.56;5049098;28;20106;-74
2021/08/08 02:50:51;;;;;;;15.52;8.90;;;;;;;13.60;100.00;99898.22;5049211;28;20101;-74
2021/08/08 02:53:19;;;;;;;14.32;8.18;;;;;;;13.56;100.00;99893.47;5048884;28;20036;-74
2021/08/08 02:55:45;;;;;;;22.52;9.50;;;;;;;13.55;100.00;99899.84;5048747;28;20033;-73
2021/08/08 02:58:11;;;;;;;13.83;9.00;;;;;;;13.52;100.00;99896.53;5048903;28;20064;-74
2021/08/08 03:00:39;;;;;;;11.98;8.15;;;;;;;13.46;100.00;99897.34;5048663;28;20256;-74
2021/08/08 03:03:06;;;;;;;10.70;8.67;;;;;;;13.48;100.00;99905.19;5032282;28;20106;-74
2021/08/08 03:05:33;;;;;;;13.60;9.18;;;;;;;13.48;100.00;99900.63;5048426;28;20056;-74
2021/08/08 03:07:59;;;;;;;17.58;8.70;;;;;;;13.46;100.00;99918.81;5032062;28;20652;-74
2021/08/08 03:10:24;;;;;;;16.83;8.90;;;;;;;13.43;100.00;99895.06;5049644;28;20108;-74
2021/08/08 03:12:50;;;;;;;17.10;8.23;;;;;;;13.40;100.00;99906.19;5048682;28;20691;-74
2021/08/08 03:15:16;;;;;;;;;;;;;;;13.36;100.00;99896.06;5032291;28;20426;-74
2021/08/08 03:17:43;;;;;;;13.07;7.85;;;;;;;13.33;100.00;99913.38;5048375;28;19924;-74
2021/08/08 03:20:09;;;;;;;12.93;7.50;;;;;;;13.32;100.00;99897.50;5031761;28;20541;-74
2021/08/08 03:22:35;;;;;;;13.13;8.02;;;;;;;13.30;100.00;99903.91;5048152;28;20052;-74
2021/08/08 03:25:00;;;;;;;14.90;8.23;;;;;;;13.29;100.00;99896.88;5047964;28;20040;-74
2021/08/08 03:27:26;;;;;;;17.03;8.50;;;;;;;13.26;100.00;99909.81;5030947;28;20063;-74
2021/08/08 03:29:51;;;;;;;24.30;7.67;;;;;;;13.25;100.00;99906.31;5048236;28;20492;-74
2021/08/08 03:32:17;;;;;;;11.37;7.60;;;;;;;13.25;100.00;99913.50;5048268;28;20070;-74
2021/08/08 03:34:42;;;;;;;18.53;8.30;;;;;;;13.25;100.00;99914.38;5048022;28;20032;-74
2021/08/08 03:37:08;;;;;;;19.23;8.95;;;;;;;13.19;100.00;99912.47;5047715;28;20032;-74
2021/08/08 03:39:37;;;;;;;14.05;8.25;;;;;;;13.18;100.00;99909.97;5032009;28;20036;-74
2021/08/08 03:42:03;;;;;;;16.73;8.65;;;;;;;13.20;100.00;99907.94;5047718;28;20133;-73
2021/08/08 03:44:30;;;;;;;14.45;7.70;;;;;;;13.20;100.00;99913.28;5047858;28;20474;-73
2021/08/08 03:46:57;;;;;;;14.07;7.53;;;;;;;13.23;100.00;99918.28;5047617;28;20028;-74
2021/08/08 03:49:23;;;;;;;21.25;9.05;;;;;;;13.21;100.00;99909.59;5048137;28;20033;-73
2021/08/08 03:51:49;;;;;;;14.63;8.77;;;;;;;13.23;100.00;99907.56;5048694;28;20041;-73
2021/08/08 03:54:15;;;;;;;;;;;;;;;13.20;100.00;99913.28;5031263;28;20043;-74
2021/08/08 03:56:42;;;;;;;;;;;;;;;13.23;100.00;99915.59;5047736;28;19912;-74
2021/08/08 03:59:08;;;;;;;13.25;9.20;;;;;;;13.20;100.00;99910.63;5047889;28;19912;-73
2021/08/08 04:01:34;;;;;;;22.33;10.57;;;;;;;13.26;100.00;99918.69;5047603;28;20123;-73
2021/08/08 04:04:00;;;;;;;22.30;9.88;;;;;;;13.22;100.00;99921.97;5047575;28;20025;-74
2021/08/08 04:06:26;;;;;;;19.48;9.60;;;;;;;13.24;100.00;99919.91;5030699;28;20044;-74
2021/08/08 04:08:51;;;;;;;11.80;9.30;;;;;;;13.24;100.00;99922.59;5047815;28;20362;-73
2021/08/08 04:11:17;;;;;;;15.77;9.80;;;;;;;13.24;100.00;99917.22;5047374;28;20021;-73
2021/08/08 04:13:42;;;;;;;13.23;9.73;;;;;;;13.24;100.00;99927.97;5047481;28;20086;-73
2021/08/08 04:16:08;;;;;;;15.35;8.57;;;;;;;13.26;100.00;99926.72;5046988;28;20856;-73
2021/08/08 04:18:34;;;;;;;14.13;8.97;;;;;;;13.27;100.00;99932.91;5047775;28;20045;-73
2021/08/08 04:21:01;;;;;;;12.02;7.97;;;;;;;13.35;100.00;99946.19;5031072;28;20454;-73
2021/08/08 04:23:26;;;;;;;16.92;9.65;;;;;;;13.33;100.00;99944.72;5048103;28;20064;-73
2021/08/08 04:25:52;;;;;;;13.35;7.68;;;;;;;13.35;100.00;99940.81;5046766;28;20035;-72
2021/08/08 04:28:18;;;;;;;10.40;7.18;;;;;;;13.37;100.00;99941.47;5046651;28;20041;-73
2021/08/08 04:30:44;;;;;;;17.25;8.25;;;;;;;13.36;100.00;99938.97;5047592;28;20059;-72
2021/08/08 04:33:10;;;;;;;10.10;6.97;;;;;;;13.42;100.00;99944.34;5047088;28;20029;-72
2021/08/08 04:35:38;;;;;;;13.27;7.47;;;;;;;13.48;100.00;99942.72;5030486;28;20029;-72
2021/08/08 04:38:05;;;;;;;9.95;6.75;;;;;;;13.56;100.00;99947.09;5046936;28;20060;-72
2021/08/08 04:40:31;;;;;;;9.63;6.15;;;;;;;13.64;100.00;99936.16;5047181;28;20525;-72
2021/08/08 04:42:58;;;;;;;10.17;6.03;;;;;;;13.71;100.00;99942.38;5046908;28;20179;-72
2021/08/08 04:45:24;;;;;;;10.93;6.38;;;;;;;13.77;100.00;99938.91;5046981;28;20541;-72
2021/08/08 04:47:50;;;;;;;8.00;4.90;;;;;;;13.88;100.00;99941.00;5046820;28;20044;-73
2021/08/08 04:50:17;;;;;;;6.75;5.55;;;;;;;13.97;99.58;99946.16;5047180;28;20029;-71
2021/08/08 04:52:45;;;;;;;7.90;4.75;;;;;;;14.11;99.56;99953.19;5046732;28;20067;-72
2021/08/08 04:55:11;;;;;;;9.98;4.35;;;;;;;14.26;99.02;99945.78;5043887;28;20074;-71
2021/08/08 04:57:36;;;;;;;6.00;4.63;;;;;;;14.27;97.72;99952.78;5045046;28;20044;-71
2021/08/08 05:00:03;;;;;;;7.33;4.33;;;;;;;14.42;97.13;99959.81;5045106;28;20039;-71
2021/08/08 05:02:29;;;;;;;5.80;3.88;;;;;;;14.43;96.77;99946.19;5046358;28;20036;-71
2021/08/08 05:04:54;;;;;;;8.60;4.70;;;;;;;14.54;95.55;99932.16;5046437;28;20526;-71
2021/08/08 05:07:20;;;;;;;6.13;4.40;;;;;;;14.66;96.24;99942.28;5049516;28;20033;-71
2021/08/08 05:09:45;;;;;;;6.07;3.50;;;;;;;14.95;95.86;99943.66;5050948;28;20454;-71
2021/08/08 05:12:11;;;;;;;9.90;3.30;;;;;;;14.96;94.64;99940.78;5050892;28;20102;-71
2021/08/08 05:14:41;;;;;;;8.18;3.97;;;;;;;14.96;93.78;99939.91;5049909;28;20025;-71
2021/08/08 05:17:07;;;;;;;4.20;3.47;;;;;;;15.01;93.20;99937.44;5033543;28;20144;-71
2021/08/08 05:19:32;;;;;;;6.20;3.47;;;;;;;15.42;93.62;99944.31;5032758;28;20498;-70
2021/08/08 05:21:58;;;;;;;14.93;3.73;;;;;;;15.85;90.95;99943.72;5050664;28;20106;-70
2021/08/08 05:24:24;;;;;;;4.90;3.22;;;;;;;15.08;91.00;99935.56;5050251;28;20036;-71
2021/08/08 05:26:50;;;;;;;4.15;3.10;;;;;;;14.83;92.17;99945.34;5033897;28;20041;-71
2021/08/08 05:29:15;;;;;;;7.33;3.50;;;;;;;14.71;93.27;99943.28;5033458;28;20029;-71
2021/08/08 05:31:41;;;;;;;8.57;3.53;;;;;;;14.62;93.78;99944.53;5050243;28;20060;-71
2021/08/08 05:34:07;;;;;;;5.23;3.10;;;;;;;15.04;93.38;99960.38;5050283;28;20033;-71
2021/08/08 05:36:33;;;;;;;4.07;2.50;;;;;;;16.49;88.06;99954.44;5047014;28;20036;-70
2021/08/08 05:39:00;;;;;;;4.03;2.58;;;;;;;17.22;83.15;99962.63;5033379;28;20783;-71
2021/08/08 05:41:26;;;;;;;3.60;2.20;;;;;;;18.04;78.72;99956.81;5033943;28;20036;-71
2021/08/08 05:43:53;;;;;;;2.85;2.28;;;;;;;17.32;79.79;99961.28;5049853;28;20032;-71
2021/08/08 05:46:19;;;;;;;8.80;3.03;;;;;;;17.15;81.19;99964.59;5049626;28;20029;-71
2021/08/08 05:48:45;;;;;;;4.57;2.58;;;;;;;17.16;79.02;99960.00;5049920;28;20123;-71
2021/08/08 05:51:10;;;;;;;2.50;2.00;;;;;;;17.78;78.81;99960.69;5033176;28;20029;-71
2021/08/08 05:53:36;;;;;;;4.43;2.03;;;;;;;18.88;75.67;99961.28;5049663;28;20060;-71
2021/08/08 05:56:01;;;;;;;5.90;1.90;;;;;;;18.76;74.73;99963.97;5049364;28;20066;-71
2021/08/08 05:58:30;;;;;;;3.78;2.42;;;;;;;18.31;75.65;99959.13;5033567;28;20043;-71
2021/08/08 06:00:56;;;;;;;6.10;2.73;;;;;;;17.87;76.39;99963.94;5049527;28;20041;-71
2021/08/08 06:03:21;;;;;;;3.37;2.20;;;;;;;18.88;74.68;99967.50;5033397;28;20555;-71
2021/08/08 06:05:47;;;;;;;3.35;2.20;;;;;;;19.61;72.07;99970.66;5032870;28;20060;-71
2021/08/08 06:08:12;;;;;;;4.53;2.73;;;;;;;18.48;74.94;99970.88;5049798;28;20670;-70
2021/08/08 06:10:38;;;;;;;7.43;3.33;;;;;;;17.09;79.25;99979.81;5050655;28;20028;-70
2021/08/08 06:13:04;;;;;;;5.40;2.78;;;;;;;16.59;82.65;99979.00;5033167;28;20045;-71
2021/08/08 06:15:29;;;;;;;7.40;2.85;;;;;;;16.20;84.63;99980.97;5032905;28;20450;-71
2021/08/08 06:17:56;;;;;;;6.00;3.38;;;;;;;15.93;85.86;99978.44;5049167;28;20056;-71
2021/08/08 06:20:22;;;;;;;4.65;2.35;;;;;;;15.58;87.93;99984.19;5049912;28;20363;-71
2021/08/08 06:22:49;;;;;;;5.18;3.28;;;;;;;15.76;88.48;99986.22;5049559;28;20041;-71
2021/08/08 06:25:16;;;;;;;7.28;2.75;;;;;;;15.54;88.01;99987.50;5049231;28;20028;-70
2021/08/08 06:27:42;;;;;;;4.63;2.78;;;;;;;15.70;88.84;99994.28;5049847;28;20033;-70
2021/08/08 06:30:08;;;;;;;5.85;3.50;;;;;;;15.60;88.47;99995.56;5049649;28;20053;-70
2021/08/08 06:32:34;;;;;;;4.68;2.90;;;;;;;15.55;89.18;99998.06;5032711;28;20564;-70
2021/08/08 06:35:00;;;;;;;;;;;;;;;15.81;88.99;100007.09;5033213;28;20097;-70
2021/08/08 06:37:25;;;;;;;;;;;;;;;15.81;88.94;100012.47;5049475;28;20307;-70
2021/08/08 06:39:51;;;;;;;6.83;3.37;;;;;;;15.47;89.68;99997.47;5032887;28;19909;-70
2021/08/08 06:42:17;;;;;;;4.63;3.45;;;;;;;15.47;89.87;100000.97;5032377;28;20041;-70
2021/08/08 06:44:46;;;;;;;7.65;3.65;;;;;;;15.56;90.59;100005.09;5049025;28;20032;-70
2021/08/08 06:47:12;;;;;;;8.25;3.22;;;;;;;15.42;90.91;100003.50;5048811;28;20033;-69
2021/08/08 06:49:38;;;;;;;4.93;3.38;;;;;;;15.36;90.39;100009.72;5048113;28;20186;-70
2021/08/08 06:52:03;;;;;;;7.43;3.60;;;;;;;15.37;91.06;100003.31;5030719;28;20079;-70
2021/08/08 06:54:29;;;;;;;5.43;3.47;;;;;;;15.40;91.15;100006.41;5047241;28;20029;-70
2021/08/08 06:56:54;;;;;;;5.00;3.67;;;;;;;15.49;90.56;99998.91;5030577;28;20095;-70
2021/08/08 06:59:20;;;;;;;6.13;3.67;;;;;;;15.47;91.56;100009.06;5047414;28;20832;-70
2021/08/08 07:01:46;;;;;;;4.35;3.00;;;;;;;15.49;91.09;100009.66;5047748;28;20027;-70
2021/08/08 07:04:12;;;;;;;7.03;3.50;;;;;;;15.47;91.30;100014.44;5031778;28;20033;-70
2021/08/08 07:06:37;;;;;;;5.30;3.70;;;;;;;15.46;90.29;100015.47;5049448;28;20052;-70
2021/08/08 07:09:05;;;;;;;5.37;3.10;;;;;;;15.39;91.16;100020.88;5048474;28;20816;-70
2021/08/08 07:11:30;;;;;;;10.05;3.15;;;;;;;15.39;90.20;100012.81;5048628;28;20159;-70
2021/08/08 07:13:56;;;;;;;7.93;3.88;;;;;;;15.37;91.06;100022.13;5048559;28;20481;-70
2021/08/08 07:16:22;;;;;;;7.63;3.30;;;;;;;15.20;91.48;100017.22;5031815;28;20358;-70
2021/08/08 07:18:47;;;;;;;9.43;3.90;;;;;;;15.22;92.06;100019.69;5031967;28;20518;-70
2021/08/08 07:21:13;;;;;;;9.67;3.87;;;;;;;15.17;92.17;100023.03;5048710;28;20291;-70
2021/08/08 07:23:39;;;;;;;;;;;;;;;15.20;92.26;100019.91;5032247;28;20043;-70
2021/08/08 07:26:04;;;;;;;;;;;;;;;15.17;92.51;100028.41;5049407;28;20258;-70
2021/08/08 07:28:30;;;;;;;6.20;5.13;;;;;;;15.19;92.66;100020.94;5047408;28;19974;-70
2021/08/08 07:30:56;;;;;;;10.20;4.55;;;;;;;15.15;93.16;100025.09;5032049;28;20032;-70
2021/08/08 07:33:21;;;;;;;5.57;4.67;;;;;;;15.15;93.48;100025.09;5048181;28;20092;-70
2021/08/08 07:35:48;;;;;;;5.33;4.73;;;;;;;15.12;93.53;100019.28;5047702;28;20340;-70
2021/08/08 07:38:14;;;;;;;8.85;5.10;;;;;;;15.08;93.37;100029.66;5048167;28;20029;-70
2021/08/08 07:40:39;;;;;;;6.27;5.60;;;;;;;15.13;93.92;100021.78;5048302;28;20024;-70
2021/08/08 07:43:05;;;;;;;5.07;4.53;;;;;;;15.27;93.77;100027.13;5048219;28;20036;-70
2021/08/08 07:45:31;;;;;;;5.40;4.90;;;;;;;15.18;93.36;100021.97;5047675;28;20443;-70
2021/08/08 07:47:56;;;;;;;8.82;4.97;;;;;;;15.11;93.26;100039.16;5047959;28;20036;-71
2021/08/08 07:50:22;;;;;;;6.95;4.60;;;;;;;15.15;93.32;100030.47;5031253;28;20032;-70
2021/08/08 07:52:48;;;;;;;6.50;4.47;;;;;;;15.13;93.06;100032.53;5031467;28;20047;-71
2021/08/08 07:55:13;;;;;;;6.57;4.60;;;;;;;15.20;93.15;100038.72;5047577;28;20267;-71
2021/08/08 07:57:41;;;;;;;5.80;4.55;;;;;;;15.19;93.32;100042.47;5047742;28;20029;-71
2021/08/08 08:00:07;;;;;;;8.30;4.23;;;;;;;15.17;93.35;100033.78;5031161;28;20043;-71
2021/08/08 08:02:43;;;;;;;6.72;4.13;;;;;;;15.36;92.90;100048.22;5047720;28;20041;-71
2021/08/08 08:05:09;;;;;;;3.88;3.30;;;;;;;15.14;92.70;100049.47;5047226;28;20431;-70
2021/08/08 08:07:35;;;;;;;4.75;3.42;;;;;;;15.13;94.42;100058.59;5047412;28;20423;-70
2021/08/08 08:10:00;;;;;;;5.00;4.00;;;;;;;15.18;95.57;100056.94;5046242;28;20026;-70
2021/08/08 08:12:26;;;;;;;5.38;4.07;;;;;;;15.16;96.13;100050.94;5031009;28;20459;-70
2021/08/08 08:14:52;;;;;;;6.67;4.30;;;;;;;15.06;96.11;100073.91;5030578;28;20083;-71
2021/08/08 08:17:17;;;;;;;5.05;4.43;;;;;;;15.01;96.69;100061.09;5046777;28;20024;-71
2021/08/08 08:19:43;;;;;;;6.73;5.03;;;;;;;14.80;97.80;100072.03;5047467;28;20544;-71
2021/08/08 08:22:08;;;;;;;5.63;4.77;;;;;;;14.88;98.90;100074.53;5047285;28;20055;-71
2021/08/08 08:24:33;;;;;;;9.53;5.90;;;;;;;14.89;99.00;100073.47;5047264;28;20028;-70
2021/08/08 08:26:59;;;;;;;7.53;4.97;;;;;;;14.94;99.05;100079.09;5030255;28;20049;-70
2021/08/08 08:29:24;;;;;;;7.83;6.07;;;;;;;15.04;99.55;100071.41;5047068;28;20033;-70
2021/08/08 08:31:50;;;;;;;6.53;5.93;;;;;;;15.08;99.01;100077.22;5030512;28;20492;-70
2021/08/08 08:34:15;;;;;;;6.67;5.60;;;;;;;15.12;98.83;100084.63;5046767;28;20048;-70
2021/08/08 08:36:41;;;;;;;7.03;5.30;;;;;;;15.33;98.22;100077.38;5046475;28;20584;-70
2021/08/08 08:39:06;;;;;;;6.47;5.87;;;;;;;15.48;97.70;100083.34;5046991;28;20635;-70
2021/08/08 08:41:32;;;;;;;6.53;5.93;;;;;;;15.33;98.17;100085.44;5029957;28;20028;-70
2021/08/08 08:44:00;;;;;;;6.65;5.80;;;;;;;15.26;98.04;100092.69;5046565;28;20033;-70
2021/08/08 08:46:26;;;;;;;7.70;6.03;;;;;;;15.17;98.25;100098.31;5046429;28;20048;-70
2021/08/08 08:48:53;;;;;;;6.60;5.50;;;;;;;15.15;98.70;100105.75;5046883;28;20076;-70
2021/08/08 08:51:26;;;;;;;6.10;4.82;;;;;;;15.14;99.07;100108.63;5030460;28;20402;-70
2021/08/08 08:53:53;;;;;;;7.43;5.65;;;;;;;15.17;99.56;100106.38;5030396;28;20033;-70
2021/08/08 08:56:18;;;;;;;6.22;5.63;;;;;;;15.21;98.40;100106.75;5030102;28;20460;-70
2021/08/08 08:58:44;;;;;;;7.97;5.72;;;;;;;15.23;98.69;100111.94;5046727;28;20037;-70
2021/08/08 09:01:11;;;;;;;11.52;6.05;;;;;;;15.33;98.59;100101.56;5046812;28;20132;-70
2021/08/08 09:03:36;;;;;;;;;;;;;;;15.43;98.01;100114.59;5047105;28;20017;-70
2021/08/08 09:06:02;;;;;;;;;;;;;;;15.44;98.33;100114.38;5046989;28;19971;-70
2021/08/08 09:08:27;;;;;;;7.95;6.22;;;;;;;15.22;99.49;100108.44;5046782;28;20539;-70
2021/08/08 09:11:19;;;;;;;9.85;7.85;;;;;;;15.13;100.00;100113.19;5047045;28;20060;-70
2021/08/08 09:13:55;;;;;;;9.82;7.45;;;;;;;15.19;100.00;100115.06;5029179;28;20041;-70
2021/08/08 09:16:25;;;;;;;9.23;8.23;;;;;;;15.42;100.00;100124.53;5030154;28;20413;-69
2021/08/08 09:18:53;;;;;;;7.22;6.53;;;;;;;15.20;100.00;100119.38;5046570;28;20060;-69
2021/08/08 09:21:22;;;;;;;10.05;6.97;;;;;;;15.13;100.00;100117.75;5046781;28;20078;-70
2021/08/08 09:23:59;;;;;;;10.68;7.43;;;;;;;15.11;100.00;100135.94;5029922;28;20371;-71
2021/08/08 09:26:34;;;;;;;7.25;6.43;;;;;;;14.96;100.00;100128.06;5047449;28;20036;-71
2021/08/08 09:29:13;;;;;;;6.68;5.75;;;;;;;14.84;100.00;100119.78;5030066;28;20509;-71
2021/08/08 09:31:44;;;;;;;6.65;5.60;;;;;;;14.92;100.00;100132.22;5046513;28;20033;-71
2021/08/08 09:34:31;;;;;;;7.75;5.80;;;;;;;14.96;100.00;100136.97;5046328;28;20047;-72
2021/08/08 09:36:59;;;;;;;9.90;6.70;;;;;;;15.14;100.00;100141.72;5047468;28;20099;-72
2021/08/08 09:39:30;;;;;;;6.95;6.18;;;;;;;15.54;100.00;100144.38;5047480;28;20024;-73
2021/08/08 09:42:17;;;;;;;7.35;6.28;;;;;;;16.80;100.00;100145.75;5046364;28;20486;-72
2021/08/08 09:45:10;;;;;;;8.05;4.82;;;;;;;17.12;93.41;100158.41;5046173;28;20040;-72
2021/08/08 09:47:50;;;;;;;6.13;5.18;;;;;;;17.28;92.49;100155.97;5044792;28;20076;-71
2021/08/08 09:50:21;;;;;;;6.40;4.68;;;;;;;17.10;93.05;100153.22;5029733;28;20098;-70
2021/08/08 09:52:55;;;;;;;5.50;4.60;;;;;;;17.56;91.48;100157.38;5048289;28;20366;-70
2021/08/08 09:55:25;;;;;;;5.47;4.45;;;;;;;17.39;91.81;100177.88;5050806;28;20036;-70
2021/08/08 09:57:50;;;;;;;8.27;5.57;;;;;;;17.50;90.85;100166.38;5050862;28;20040;-70
2021/08/08 10:00:33;;;;;;;4.35;3.72;;;;;;;17.67;90.90;100169.31;5050964;28;20453;-70
2021/08/08 10:02:59;;;;;;;5.18;4.68;;;;;;;17.64;89.71;100167.06;5033109;28;20742;-71
2021/08/08 10:05:25;;;;;;;5.75;4.45;;;;;;;17.91;89.15;100175.72;5049402;28;20040;-71
2021/08/08 10:07:53;;;;;;;4.53;4.10;;;;;;;18.61;87.09;100186.09;5050677;28;20117;-71
2021/08/08 10:10:20;;;;;;;4.80;4.35;;;;;;;18.32;85.62;100179.63;5050777;28;20094;-71
2021/08/08 10:12:55;;;;;;;;;;;;;;;17.78;86.09;100183.97;5051241;28;20040;-71
2021/08/08 10:15:21;;;;;;;7.13;3.97;;;;;;;17.40;86.80;100182.25;5050272;28;19913;-71
2021/08/08 10:17:49;;;;;;;6.57;4.70;;;;;;;17.18;88.92;100179.91;5050490;28;20045;-71
2021/08/08 10:20:15;;;;;;;11.68;4.97;;;;;;;17.81;89.18;100178.13;5050569;28;20037;-71
2021/08/08 10:22:42;;;;;;;11.13;5.78;;;;;;;18.00;84.44;100176.25;5049620;28;20126;-70
2021/08/08 10:25:09;;;;;;;5.75;4.43;;;;;;;18.04;86.45;100182.88;5050395;28;20438;-71
2021/08/08 10:27:35;;;;;;;5.07;4.30;;;;;;;18.74;83.85;100171.56;5048591;28;20041;-71
2021/08/08 10:30:02;;;;;;;8.90;3.88;;;;;;;19.86;80.87;100175.41;5050662;28;20035;-70
2021/08/08 10:32:29;;;;;;;5.50;3.92;;;;;;;20.64;77.33;100184.88;5050081;28;20774;-71
2021/08/08 10:34:55;;;;;;;3.42;3.03;;;;;;;20.19;77.02;100172.03;5049287;28;20029;-71
2021/08/08 10:37:24;;;;;;;3.20;2.90;;;;;;;19.55;76.51;100172.81;5049742;28;20133;-71
2021/08/08 10:39:50;;;;;;;5.40;3.47;;;;;;;19.96;76.34;100172.91;5049973;28;20528;-71
2021/08/08 10:42:16;;;;;;;;;;;;;;;20.29;74.37;100185.78;5049135;28;20111;-71
2021/08/08 10:44:47;;;;;;;3.78;2.85;;;;;;;20.08;76.90;100189.94;5045811;28;20003;-71
2021/08/08 10:47:27;;;;;;;4.45;3.20;;;;;;;19.11;77.57;100188.53;5044842;28;20048;-71
2021/08/08 10:49:52;;;;;;;5.05;3.13;;;;;;;18.41;79.70;100199.88;5047658;28;20048;-71
2021/08/08 10:52:18;;;;;;;6.93;3.90;;;;;;;18.07;82.89;100204.00;5048571;28;20178;-71
2021/08/08 10:54:46;;;;;;;6.43;4.13;;;;;;;17.28;84.15;100215.34;5067904;28;20036;-71
2021/08/08 10:57:14;;;;;;;6.22;5.05;;;;;;;16.86;88.39;100215.00;5047518;28;20455;-71
2021/08/08 10:59:47;;;;;;;5.95;4.88;;;;;;;16.80;91.20;100225.81;5044737;28;20044;-71
2021/08/08 11:02:14;;;;;;;6.20;4.60;;;;;;;16.38;92.81;100226.16;5047038;28;20036;-70
2021/08/08 11:04:40;;;;;;;4.95;4.45;;;;;;;16.17;93.98;100237.22;5048138;28;20033;-70
2021/08/08 11:07:07;;;;;;;7.00;4.68;;;;;;;15.91;95.59;100244.34;5049306;28;20106;-70
2021/08/08 11:09:39;;;;;;;8.32;5.32;;;;;;;15.86;96.45;100246.84;5049778;28;20036;-70
2021/08/08 11:12:06;;;;;;;6.85;5.60;;;;;;;15.93;95.95;100258.41;5050360;28;20083;-70
2021/08/08 11:14:32;;;;;;;6.82;6.07;;;;;;;15.85;96.04;100253.25;5049772;28;20033;-70
2021/08/08 11:17:01;;;;;;;11.65;8.32;;;;;;;15.76;96.93;100251.81;5048352;28;20032;-70
2021/08/08 11:19:36;;;;;;;13.65;8.38;;;;;;;15.72;98.69;100250.56;5048301;28;20040;-70
2021/08/08 11:22:12;;;;;;;14.93;9.85;;;;;;;15.63;99.99;100256.13;5031944;28;20069;-71
2021/08/08 11:24:39;;;;;;;14.63;10.00;;;;;;;15.69;100.00;100256.34;5048060;28;20029;-72
2021/08/08 11:27:06;;;;;;;13.38;10.52;;;;;;;15.77;100.00;100270.44;5049315;28;20033;-72